Time;durP1;ratioP1;P1;durP2;ratioP2;P2;SDS_P1;SDS_P2;PMS_P1;PMS_P2;Temp;Humidity;BMP_temperature;BMP_pressure;BME280_temperature;BME280_humidity;BME280_pressure;Samples;Min_cycle;Max_cycle;Signal;HPM_P1;HPM_P2
2022/05/07 00:01:13;;;;;;;8.17;6.47;;;;;;;13.86;62.23;100130.84;5070697;28;20634;-55
2022/05/07 00:03:41;;;;;;;7.17;6.30;;;;;;;13.90;61.95;100132.63;5070950;28;20246;-55
2022/05/07 00:06:08;;;;;;;10.70;6.77;;;;;;;13.84;61.97;100129.97;5070841;28;20196;-55
2022/05/07 00:08:35;;;;;;;8.30;7.10;;;;;;;13.79;62.51;100127.28;5070709;28;20214;-55
2022/05/07 00:11:02;;;;;;;7.07;6.37;;;;;;;13.77;62.62;100125.53;5070545;28;20258;-55
2022/05/07 00:13:29;;;;;;;7.37;6.63;;;;;;;13.73;63.01;100127.25;5070431;28;20196;-55
2022/05/07 00:18:41;;;;;;;10.77;7.47;;;;;;;13.70;63.51;100114.28;5069885;28;20940;-55
2022/05/07 00:21:08;;;;;;;7.67;6.23;;;;;;;13.79;62.97;100123.88;5070263;28;20191;-55
2022/05/07 00:23:35;;;;;;;11.67;6.37;;;;;;;13.74;63.37;100117.75;5070459;28;20193;-55
2022/05/07 00:26:02;;;;;;;14.20;7.03;;;;;;;13.73;63.72;100121.19;5069771;28;20193;-55
2022/05/07 00:28:29;;;;;;;8.70;6.63;;;;;;;13.72;63.64;100117.75;5070564;28;20195;-55
2022/05/07 00:30:56;;;;;;;10.50;6.00;;;;;;;13.67;64.08;100119.41;5070228;28;20191;-55
2022/05/07 00:33:22;;;;;;;7.70;6.57;;;;;;;13.62;64.45;100120.19;5070461;28;20198;-55
2022/05/07 00:35:51;;;;;;;9.80;7.00;;;;;;;13.59;64.71;100111.56;5070325;28;20624;-55
2022/05/07 00:38:17;;;;;;;8.10;7.30;;;;;;;13.55;64.69;100120.09;5069846;28;20236;-55
2022/05/07 00:40:44;;;;;;;8.13;6.23;;;;;;;13.51;65.19;100120.88;5070339;28;20196;-55
2022/05/07 00:43:15;;;;;;;9.10;6.80;;;;;;;13.45;65.25;100113.06;5070115;28;20249;-55
2022/05/07 00:45:42;;;;;;;10.80;6.93;;;;;;;13.42;65.61;100113.03;5070450;28;20692;-55
2022/05/07 00:48:09;;;;;;;10.30;7.87;;;;;;;13.45;65.30;100109.63;5070011;28;20701;-55
2022/05/07 00:53:22;;;;;;;9.10;7.37;;;;;;;13.39;65.80;100107.81;5070325;28;20210;-55
2022/05/07 00:55:50;;;;;;;11.17;7.30;;;;;;;13.37;66.00;100101.78;5070238;28;20217;-55
2022/05/07 00:58:18;;;;;;;10.50;7.57;;;;;;;13.28;66.47;100101.63;5070236;28;20256;-55
2022/05/07 01:00:45;;;;;;;8.33;7.43;;;;;;;13.30;66.80;100099.94;5070094;28;20732;-55
2022/05/07 01:03:12;;;;;;;11.17;7.83;;;;;;;13.32;66.71;100103.38;5070350;28;20253;-55
2022/05/07 01:05:39;;;;;;;9.37;7.93;;;;;;;13.30;66.92;100102.50;5070128;28;20199;-55
2022/05/07 01:08:08;;;;;;;10.63;9.43;;;;;;;13.29;67.18;100108.53;5069241;28;20203;-55
2022/05/07 01:10:36;;;;;;;12.77;8.20;;;;;;;13.31;67.21;100108.53;5070014;28;20259;-55
2022/05/07 01:13:04;;;;;;;11.80;8.07;;;;;;;13.23;67.35;100102.41;5070098;28;20195;-55
2022/05/07 01:15:31;;;;;;;11.73;8.20;;;;;;;13.22;67.36;100104.09;5069885;28;20192;-56
2022/05/07 01:17:58;;;;;;;11.43;7.47;;;;;;;13.19;67.68;100103.19;5069712;28;20200;-56
2022/05/07 01:20:25;;;;;;;11.73;8.10;;;;;;;13.24;67.69;100109.31;5069653;28;20195;-56
2022/05/07 01:22:53;;;;;;;9.13;8.00;;;;;;;13.25;67.94;100101.56;5070011;28;20191;-55
2022/05/07 01:25:20;;;;;;;11.30;8.33;;;;;;;13.21;68.04;100097.19;5069697;28;20197;-56
2022/05/07 01:27:47;;;;;;;15.57;10.50;;;;;;;13.23;67.79;100100.69;5069937;28;20567;-56
2022/05/07 01:30:14;;;;;;;14.27;10.20;;;;;;;13.23;68.13;100099.81;5069872;28;20216;-56
2022/05/07 01:32:41;;;;;;;12.20;9.30;;;;;;;13.26;67.88;100099.88;5069804;28;20187;-56
2022/05/07 01:35:08;;;;;;;13.20;9.13;;;;;;;13.23;68.38;100092.94;5069694;28;20198;-55
2022/05/07 01:37:35;;;;;;;13.53;9.43;;;;;;;13.12;68.60;100086.75;5069993;28;20511;-56
2022/05/07 01:40:04;;;;;;;12.80;8.87;;;;;;;13.15;68.49;100093.66;5073580;28;20627;-56
2022/05/07 01:42:31;;;;;;;11.47;8.07;;;;;;;13.16;68.67;100093.69;5073312;28;20682;-56
2022/05/07 01:44:57;;;;;;;12.93;8.87;;;;;;;13.09;68.65;100094.44;5073196;28;20191;-55
2022/05/07 01:50:09;;;;;;;10.87;8.63;;;;;;;13.12;68.74;100098.78;5073208;28;20719;-56
2022/05/07 01:52:36;;;;;;;11.17;8.67;;;;;;;13.14;68.77;100100.53;5073384;28;20261;-56
2022/05/07 01:55:04;;;;;;;8.77;7.97;;;;;;;13.13;68.93;100093.63;5073052;28;20200;-56
2022/05/07 01:57:31;;;;;;;10.95;9.55;;;;;;;13.20;69.40;100099.78;5072328;28;20495;-56
2022/05/07 01:59:58;;;;;;;13.57;8.27;;;;;;;13.20;68.92;100098.06;5072975;28;20676;-56
2022/05/07 02:02:25;;;;;;;11.30;8.10;;;;;;;13.19;68.95;100104.06;5073260;28;20192;-56
2022/05/07 02:04:52;;;;;;;9.10;8.03;;;;;;;13.12;69.26;100102.25;5072946;28;20192;-56
2022/05/07 02:07:19;;;;;;;10.23;7.90;;;;;;;13.14;69.32;100097.09;5072711;28;20194;-56
2022/05/07 02:09:46;;;;;;;13.00;8.23;;;;;;;13.12;68.79;100104.81;5072884;28;20740;-56
2022/05/07 02:12:14;;;;;;;13.03;7.63;;;;;;;13.12;68.96;100101.38;5072902;28;20665;-56
2022/05/07 02:14:41;;;;;;;8.13;7.30;;;;;;;13.11;68.68;100100.50;5073053;28;20278;-56
2022/05/07 02:17:09;;;;;;;11.20;7.60;;;;;;;13.09;68.81;100102.19;5072910;28;20197;-56
2022/05/07 02:19:35;;;;;;;12.10;7.70;;;;;;;13.03;68.83;100105.50;5072821;28;20745;-56
2022/05/07 02:22:02;;;;;;;11.87;8.50;;;;;;;12.91;69.23;100099.28;5072635;28;20660;-56
2022/05/07 02:24:29;;;;;;;15.53;8.20;;;;;;;12.88;69.51;100096.66;5072759;28;20203;-56
2022/05/07 02:26:56;;;;;;;10.97;7.80;;;;;;;12.87;69.85;100092.31;5072531;28;20261;-56
2022/05/07 02:29:24;;;;;;;10.70;8.03;;;;;;;12.63;69.78;100050.66;5072682;28;20212;-56
2022/05/07 02:32:05;;;;;;;9.10;7.20;;;;;;;12.77;70.07;100093.03;5072327;28;20197;-56
2022/05/07 02:34:32;;;;;;;12.27;8.53;;;;;;;12.64;70.68;100098.78;5072437;28;20198;-56
2022/05/07 02:36:59;;;;;;;12.40;8.50;;;;;;;12.53;70.52;100077.09;5072419;28;20191;-56
2022/05/07 02:39:25;;;;;;;12.37;8.33;;;;;;;12.62;71.04;100097.91;5068353;28;20292;-59
2022/05/07 02:44:39;;;;;;;9.90;8.43;;;;;;;12.61;71.16;100086.72;5067164;28;20746;-61
2022/05/07 02:47:06;;;;;;;9.17;8.23;;;;;;;12.59;70.76;100092.69;5072098;28;20201;-61
2022/05/07 02:49:33;;;;;;;10.03;7.87;;;;;;;12.58;71.08;100090.97;5071545;28;20261;-61
2022/05/07 02:52:00;;;;;;;15.53;9.57;;;;;;;12.51;71.39;100083.97;5071903;28;20184;-61
2022/05/07 02:54:27;;;;;;;13.15;10.45;;;;;;;12.59;71.42;100092.69;5071348;28;20454;-61
2022/05/07 02:56:55;;;;;;;15.63;9.63;;;;;;;12.58;71.72;100093.56;5071935;28;20191;-61
2022/05/07 02:59:23;;;;;;;15.03;9.63;;;;;;;12.58;71.49;100096.13;5072097;28;20205;-59
2022/05/07 03:01:52;;;;;;;11.33;8.20;;;;;;;12.36;71.40;100067.38;5072297;28;20196;-61
2022/05/07 03:04:19;;;;;;;16.03;8.63;;;;;;;12.50;71.60;100097.72;5071097;28;20195;-61
2022/05/07 03:06:45;;;;;;;13.87;9.03;;;;;;;12.43;72.34;100101.88;5065223;28;20203;-60
2022/05/07 03:09:12;;;;;;;11.60;9.30;;;;;;;12.40;72.00;100100.09;5071745;28;20187;-61
2022/05/07 03:11:39;;;;;;;11.50;8.97;;;;;;;12.37;72.08;100104.31;5071695;28;20195;-59
2022/05/07 03:14:06;;;;;;;13.53;9.67;;;;;;;12.45;72.43;100105.34;5071811;28;20417;-59
2022/05/07 03:16:35;;;;;;;13.37;10.03;;;;;;;12.42;71.97;100105.28;5071920;28;20192;-61
2022/05/07 03:19:03;;;;;;;16.40;9.60;;;;;;;12.44;71.99;100103.63;5071755;28;20187;-59
2022/05/07 03:21:30;;;;;;;12.33;10.50;;;;;;;12.50;71.91;100102.84;5072061;28;20189;-60
2022/05/07 03:23:57;;;;;;;12.57;9.93;;;;;;;12.44;72.03;100104.47;5071597;28;20199;-59
2022/05/07 03:26:24;;;;;;;13.43;9.87;;;;;;;12.46;71.78;100103.63;5071847;28;20195;-55
2022/05/07 03:28:51;;;;;;;11.60;10.37;;;;;;;12.48;72.10;100099.38;5071518;28;20198;-56
2022/05/07 03:31:18;;;;;;;14.53;10.50;;;;;;;12.51;72.14;100099.41;5071468;28;20349;-56
2022/05/07 03:33:45;;;;;;;15.20;10.33;;;;;;;12.56;72.01;100105.53;5070861;28;20195;-56
2022/05/07 03:36:15;;;;;;;15.07;10.70;;;;;;;12.55;72.06;100094.38;5071580;28;20581;-56
2022/05/07 03:38:42;;;;;;;14.07;10.70;;;;;;;12.38;71.75;100070.88;5071251;28;20705;-56
2022/05/07 03:41:09;;;;;;;18.20;10.97;;;;;;;12.66;71.75;100104.88;5071170;28;20191;-56
2022/05/07 03:43:36;;;;;;;13.93;11.77;;;;;;;12.76;71.58;100107.63;5071192;28;20257;-55
2022/05/07 03:46:03;;;;;;;21.40;11.83;;;;;;;12.83;71.20;100116.31;5071171;28;20245;-56
2022/05/07 03:48:30;;;;;;;12.37;10.90;;;;;;;12.89;71.16;100113.84;5071080;28;20535;-56
2022/05/07 03:50:57;;;;;;;14.80;11.87;;;;;;;12.96;70.43;100115.69;5070548;28;20216;-56
2022/05/07 03:53:30;;;;;;;20.87;12.30;;;;;;;13.05;70.90;100118.41;5070982;28;20196;-56
2022/05/07 03:55:58;;;;;;;26.57;11.83;;;;;;;13.09;70.29;100115.09;5068507;28;20367;-55
2022/05/07 03:58:25;;;;;;;23.73;10.70;;;;;;;13.16;70.22;100109.16;5063270;28;20207;-55
2022/05/07 04:00:53;;;;;;;16.57;12.27;;;;;;;13.21;70.03;100117.00;5050070;28;20202;-56
2022/05/07 04:03:19;;;;;;;15.13;11.03;;;;;;;13.28;69.70;100118.81;5068309;28;20287;-56
2022/05/07 04:05:46;;;;;;;18.00;11.63;;;;;;;13.34;69.23;100124.06;5070665;28;20252;-56
2022/05/07 04:08:13;;;;;;;14.83;11.03;;;;;;;13.42;69.07;100128.50;5070521;28;20191;-56
2022/05/07 04:10:42;;;;;;;13.97;10.50;;;;;;;13.52;68.78;100138.13;5070691;28;20699;-56
2022/05/07 04:13:10;;;;;;;18.23;12.82;;;;;;;13.55;68.38;100138.16;5070173;28;20449;-56
2022/05/07 04:15:37;;;;;;;14.23;10.93;;;;;;;13.63;68.66;100132.22;5070381;28;20196;-57
2022/05/07 04:18:04;;;;;;;16.27;12.57;;;;;;;13.60;68.10;100105.53;5070708;28;20202;-56
2022/05/07 04:20:32;;;;;;;22.97;11.73;;;;;;;13.78;67.90;100130.75;5069260;28;21603;-56
2022/05/07 04:22:58;;;;;;;13.63;11.20;;;;;;;13.78;68.18;100122.13;5070324;28;20192;-56
2022/05/07 04:25:25;;;;;;;15.17;11.50;;;;;;;13.91;67.41;100142.09;5068174;28;20570;-55
2022/05/07 04:27:55;;;;;;;15.37;11.33;;;;;;;14.00;67.10;100139.66;5065041;28;20254;-56
2022/05/07 04:30:22;;;;;;;14.30;11.13;;;;;;;14.06;67.08;100137.13;5063058;28;20369;-56
2022/05/07 04:32:49;;;;;;;16.73;12.05;;;;;;;14.12;66.71;100142.34;5071402;28;20387;-60
2022/05/07 04:35:16;;;;;;;18.40;10.93;;;;;;;14.10;66.67;100139.78;5070182;28;20198;-60
2022/05/07 04:37:44;;;;;;;14.90;10.40;;;;;;;14.16;66.45;100150.19;5070165;28;20648;-59
2022/05/07 04:40:11;;;;;;;14.93;11.13;;;;;;;14.25;65.88;100146.84;5070427;28;20191;-61
2022/05/07 04:42:38;;;;;;;15.57;11.87;;;;;;;14.33;65.64;100146.97;5070356;28;20221;-60
2022/05/07 04:45:08;;;;;;;13.90;11.33;;;;;;;14.39;65.64;100155.66;5070857;28;20668;-60
2022/05/07 04:47:35;;;;;;;12.77;11.27;;;;;;;14.52;65.23;100148.91;5069597;28;20199;-62
2022/05/07 04:50:01;;;;;;;12.53;10.53;;;;;;;14.67;64.88;100157.69;5055257;28;20734;-61
2022/05/07 04:52:28;;;;;;;16.23;11.50;;;;;;;14.74;64.20;100156.03;5070386;28;20558;-61
2022/05/07 04:54:55;;;;;;;14.33;11.37;;;;;;;14.86;63.94;100156.13;5070455;28;20218;-60
2022/05/07 04:57:22;;;;;;;17.40;12.17;;;;;;;14.92;63.61;100156.19;5070076;28;20659;-62
2022/05/07 04:59:49;;;;;;;13.80;11.50;;;;;;;15.01;63.01;100158.00;5070562;28;20192;-62
2022/05/07 05:02:17;;;;;;;19.53;12.50;;;;;;;15.05;62.74;100160.63;5070032;28;20202;-62
2022/05/07 05:04:44;;;;;;;12.87;10.10;;;;;;;15.09;61.93;100158.94;5070359;28;20194;-61
2022/05/07 05:07:10;;;;;;;15.80;10.03;;;;;;;15.19;61.45;100165.97;5070194;28;20197;-62
2022/05/07 05:09:37;;;;;;;12.10;9.70;;;;;;;15.22;61.23;100153.88;5070011;28;20666;-61
2022/05/07 05:12:05;;;;;;;13.10;10.20;;;;;;;15.27;61.04;100165.13;5071472;28;20247;-62
2022/05/07 05:17:17;;;;;;;12.27;9.00;;;;;;;15.46;58.87;100165.28;5074210;28;20682;-62
2022/05/07 05:19:44;;;;;;;9.23;8.30;;;;;;;15.34;58.08;100159.16;5073280;28;20245;-61
2022/05/07 05:22:11;;;;;;;11.50;8.30;;;;;;;15.35;58.18;100162.63;5073942;28;20199;-62
2022/05/07 05:24:38;;;;;;;12.77;8.27;;;;;;;15.38;58.80;100164.38;5073739;28;20192;-61
2022/05/07 05:27:05;;;;;;;12.77;8.73;;;;;;;15.32;58.85;100160.00;5073908;28;20202;-61
2022/05/07 05:29:32;;;;;;;12.30;9.30;;;;;;;15.31;59.22;100155.69;5073723;28;20191;-60
2022/05/07 05:31:59;;;;;;;10.38;9.30;;;;;;;15.23;59.06;100163.38;5073250;28;20532;-61
2022/05/07 05:34:27;;;;;;;15.00;9.97;;;;;;;15.31;58.82;100160.84;5073122;28;20206;-61
2022/05/07 05:36:54;;;;;;;10.87;9.33;;;;;;;15.40;59.09;100158.34;5073643;28;20190;-61
2022/05/07 05:39:21;;;;;;;12.07;9.73;;;;;;;15.49;58.79;100167.94;5073400;28;20231;-59
2022/05/07 05:41:48;;;;;;;14.07;8.67;;;;;;;15.58;58.27;100163.69;5073542;28;20191;-59
2022/05/07 05:44:14;;;;;;;12.87;9.53;;;;;;;15.66;58.41;100169.78;5073474;28;20612;-60
2022/05/07 05:46:41;;;;;;;11.13;9.43;;;;;;;15.73;58.18;100163.78;5073561;28;20187;-61
2022/05/07 05:49:08;;;;;;;11.50;9.63;;;;;;;15.69;57.98;100166.34;5073274;28;20254;-60
2022/05/07 05:51:37;;;;;;;13.03;9.17;;;;;;;15.70;58.21;100173.25;5073566;28;20273;-61
2022/05/07 05:54:04;;;;;;;13.50;9.03;;;;;;;15.71;58.37;100175.84;5071145;28;20205;-61
2022/05/07 05:56:31;;;;;;;14.77;9.70;;;;;;;15.70;58.55;100178.44;5058711;28;20213;-61
2022/05/07 05:58:57;;;;;;;10.77;9.77;;;;;;;15.80;58.47;100181.09;5073415;28;20196;-60
2022/05/07 06:01:24;;;;;;;12.70;9.60;;;;;;;15.84;58.17;100182.00;5073048;28;20685;-61
2022/05/07 06:03:51;;;;;;;12.93;9.53;;;;;;;15.88;57.50;100179.41;5072992;28;20196;-60
2022/05/07 06:06:18;;;;;;;11.00;8.37;;;;;;;15.82;56.64;100179.38;5073306;28;20273;-61
2022/05/07 06:08:47;;;;;;;15.20;9.00;;;;;;;15.79;56.54;100175.91;5072836;28;20226;-61
2022/05/07 06:11:13;;;;;;;13.83;8.90;;;;;;;15.79;56.56;100162.97;5073132;28;20222;-62
2022/05/07 06:13:43;;;;;;;11.00;9.63;;;;;;;15.87;56.26;100182.88;5073091;28;20245;-61
2022/05/07 06:16:10;;;;;;;11.87;9.30;;;;;;;15.92;56.39;100182.91;5072877;28;20195;-61
2022/05/07 06:18:36;;;;;;;9.50;8.23;;;;;;;15.97;56.38;100183.78;5073217;28;20507;-57
2022/05/07 06:21:03;;;;;;;9.83;8.10;;;;;;;15.95;56.27;100180.31;5073100;28;20187;-56
2022/05/07 06:23:30;;;;;;;11.53;8.63;;;;;;;15.88;56.06;100188.91;5071973;28;20191;-56
2022/05/07 06:28:43;;;;;;;10.10;8.30;;;;;;;15.74;57.11;100172.44;5072606;28;20691;-56
2022/05/07 06:31:10;;;;;;;17.07;9.40;;;;;;;15.84;56.78;100182.88;5072487;28;20647;-56
2022/05/07 06:33:39;;;;;;;13.17;9.37;;;;;;;15.86;56.40;100185.44;5072430;28;20253;-56
2022/05/07 06:36:07;;;;;;;10.13;8.63;;;;;;;15.74;55.89;100175.88;5072405;28;20277;-56
2022/05/07 06:38:33;;;;;;;11.93;8.13;;;;;;;15.93;56.01;100177.72;5072147;28;20277;-56
2022/05/07 06:41:03;;;;;;;13.60;8.93;;;;;;;16.02;55.88;100178.63;5072324;28;20253;-56
2022/05/07 06:43:31;;;;;;;10.23;9.20;;;;;;;15.96;56.14;100178.59;5072425;28;20201;-56
2022/05/07 06:45:58;;;;;;;11.63;9.47;;;;;;;16.17;56.04;100183.88;5072177;28;20195;-56
2022/05/07 06:48:25;;;;;;;14.60;9.93;;;;;;;15.80;56.43;100182.81;5071066;28;20425;-56
2022/05/07 06:50:52;;;;;;;10.60;9.50;;;;;;;15.93;56.18;100179.47;5071806;28;20587;-56
2022/05/07 06:53:18;;;;;;;9.90;8.90;;;;;;;15.80;56.30;100180.22;5071929;28;20206;-56
2022/05/07 06:58:29;;;;;;;12.27;9.53;;;;;;;16.20;56.15;100186.50;5068838;28;20194;-56
2022/05/07 07:00:57;;;;;;;13.07;9.53;;;;;;;16.46;55.22;100184.88;5070988;28;20194;-56
2022/05/07 07:03:24;;;;;;;12.47;10.47;;;;;;;16.68;54.47;100181.50;5071578;28;20241;-56
2022/05/07 07:05:52;;;;;;;10.07;9.17;;;;;;;16.85;53.97;100178.97;5071771;28;20188;-56
2022/05/07 07:08:20;;;;;;;11.00;9.60;;;;;;;17.05;53.20;100183.34;5071094;28;20438;-56
2022/05/07 07:10:47;;;;;;;10.43;9.43;;;;;;;17.23;52.03;100176.41;5071732;28;20234;-56
2022/05/07 07:13:16;;;;;;;11.77;9.43;;;;;;;17.23;51.55;100177.25;5071562;28;20195;-56
2022/05/07 07:15:44;;;;;;;10.27;9.03;;;;;;;17.33;51.59;100178.16;5071570;28;20252;-57
2022/05/07 07:18:11;;;;;;;11.23;9.53;;;;;;;17.39;51.75;100170.31;5066046;28;20195;-56
2022/05/07 07:20:40;;;;;;;10.73;9.63;;;;;;;17.54;51.78;100178.16;5065742;28;21588;-57
2022/05/07 07:23:11;;;;;;;18.00;8.83;;;;;;;17.56;51.54;100179.00;5071545;28;20211;-57
2022/05/07 07:25:38;;;;;;;13.47;9.47;;;;;;;17.56;51.46;100172.09;5071412;28;20569;-57
2022/05/07 07:28:05;;;;;;;12.50;9.70;;;;;;;17.66;51.73;100172.97;5071222;28;20192;-56
2022/05/07 07:30:32;;;;;;;14.17;9.27;;;;;;;17.79;50.97;100169.47;5071128;28;20256;-56
2022/05/07 07:33:00;;;;;;;12.57;9.43;;;;;;;17.86;50.44;100170.28;5071037;28;20204;-57
2022/05/07 07:35:27;;;;;;;10.03;8.77;;;;;;;17.95;50.40;100170.28;5072789;28;20198;-56
2022/05/07 07:37:54;;;;;;;11.20;9.17;;;;;;;17.96;49.56;100172.91;5071535;28;20321;-56
2022/05/07 07:40:21;;;;;;;13.03;8.93;;;;;;;17.65;50.79;100176.41;5066021;28;20675;-56
2022/05/07 07:42:48;;;;;;;12.27;9.00;;;;;;;17.69;51.08;100171.19;5068932;28;20241;-57
2022/05/07 07:48:03;;;;;;;11.93;9.80;;;;;;;17.65;50.60;100169.50;5070235;28;20191;-56
2022/05/07 07:50:31;;;;;;;10.73;8.90;;;;;;;17.76;51.00;100169.47;5069625;28;20194;-57
2022/05/07 07:52:59;;;;;;;11.57;10.47;;;;;;;17.92;50.62;100167.69;5069462;28;20270;-56
2022/05/07 07:55:26;;;;;;;13.23;8.70;;;;;;;18.01;49.05;100163.34;5069511;28;20195;-56
2022/05/07 07:57:56;;;;;;;9.67;8.67;;;;;;;17.83;49.44;100170.28;5069658;28;20191;-56
2022/05/07 08:00:23;;;;;;;10.50;8.90;;;;;;;18.01;49.29;100165.94;5069624;28;20188;-56
2022/05/07 08:02:51;;;;;;;10.83;9.13;;;;;;;18.14;49.22;100162.41;5070240;28;20183;-56
2022/05/07 08:05:22;;;;;;;11.40;9.20;;;;;;;18.35;49.17;100161.44;5066196;28;20908;-56
2022/05/07 08:13:17;;;;;;;11.90;10.50;;;;;;;18.05;50.33;100157.25;5050730;28;20187;-56
2022/05/07 08:15:45;;;;;;;11.50;9.90;;;;;;;18.24;50.17;100142.41;5050504;28;20196;-56
2022/05/07 08:18:12;;;;;;;14.57;10.37;;;;;;;18.50;49.81;100155.34;5050369;28;20641;-56
2022/05/07 08:20:41;;;;;;;15.53;10.97;;;;;;;18.54;49.79;100157.09;5050382;28;20257;-56
2022/05/07 08:23:08;;;;;;;13.17;9.53;;;;;;;18.72;49.61;100151.75;5049959;28;20674;-56
2022/05/07 08:25:35;;;;;;;12.98;10.18;;;;;;;18.65;49.22;100153.53;5049472;28;20439;-55
2022/05/07 08:28:02;;;;;;;9.77;8.87;;;;;;;18.64;47.34;100153.53;5049971;28;20685;-56
2022/05/07 08:30:29;;;;;;;9.40;8.50;;;;;;;18.59;48.78;100157.91;5049877;28;20196;-61
2022/05/07 08:32:56;;;;;;;13.77;8.67;;;;;;;18.52;49.11;100123.25;5069784;28;20247;-61
2022/05/07 08:35:23;;;;;;;10.67;8.80;;;;;;;18.62;49.13;100156.13;5070312;28;20574;-61
2022/05/07 08:37:52;;;;;;;13.70;9.23;;;;;;;18.50;49.75;100153.63;5069682;28;20247;-60
2022/05/07 08:40:20;;;;;;;10.87;9.13;;;;;;;18.72;50.11;100152.63;5070024;28;20187;-61
2022/05/07 08:42:47;;;;;;;15.93;9.63;;;;;;;18.83;51.03;100152.56;5070050;28;20300;-61
2022/05/07 08:45:14;;;;;;;13.97;9.40;;;;;;;18.54;52.58;100138.88;5069694;28;20227;-61
2022/05/07 08:47:42;;;;;;;9.93;9.03;;;;;;;18.83;52.70;100149.94;5068855;28;20210;-61
2022/05/07 08:50:11;;;;;;;10.40;9.33;;;;;;;19.00;51.04;100145.50;5070043;28;20206;-63
2022/05/07 08:52:41;;;;;;;11.33;8.73;;;;;;;19.14;50.17;100143.66;5069876;28;20292;-61
2022/05/07 08:55:11;;;;;;;9.60;8.70;;;;;;;19.32;50.20;100135.66;5069956;28;20286;-62
2022/05/07 08:57:40;;;;;;;13.23;8.97;;;;;;;19.54;49.08;100141.56;5070307;28;20230;-61
2022/05/07 09:00:09;;;;;;;13.90;8.73;;;;;;;19.41;49.90;100134.75;5069913;28;20195;-62
2022/05/07 09:02:41;;;;;;;11.43;9.13;;;;;;;19.02;51.35;100138.53;5070044;28;20188;-62
2022/05/07 09:05:10;;;;;;;9.77;8.57;;;;;;;19.27;52.24;100124.44;5069909;28;20201;-62
2022/05/07 09:07:39;;;;;;;11.20;9.70;;;;;;;19.59;50.06;100124.13;5069968;28;20195;-62
2022/05/07 09:10:12;;;;;;;10.47;8.20;;;;;;;19.58;49.70;100124.16;5069593;28;20634;-55
2022/05/07 09:12:39;;;;;;;11.40;8.80;;;;;;;19.36;50.85;100129.56;5069307;28;20280;-57
2022/05/07 09:15:08;;;;;;;11.23;9.17;;;;;;;19.47;51.04;100133.84;5069596;28;20191;-56
2022/05/07 09:17:36;;;;;;;9.17;8.27;;;;;;;19.49;50.49;100138.16;5069186;28;20625;-57
2022/05/07 09:20:12;;;;;;;10.13;8.60;;;;;;;19.50;50.49;100123.38;5064323;28;20208;-57
2022/05/07 09:22:55;;;;;;;10.73;9.68;;;;;;;19.43;51.37;100122.56;5066469;28;20438;-57
2022/05/07 09:25:24;;;;;;;10.77;9.70;;;;;;;19.41;51.24;100073.06;5066593;28;20194;-56
2022/05/07 09:27:54;;;;;;;10.73;8.57;;;;;;;19.70;50.91;100118.81;5068520;28;20252;-56
2022/05/07 09:30:25;;;;;;;12.63;9.07;;;;;;;19.46;51.73;100124.28;5068700;28;20194;-56
2022/05/07 09:32:53;;;;;;;11.03;9.60;;;;;;;19.39;52.70;100108.69;5066210;28;20195;-57
2022/05/07 09:38:06;;;;;;;10.67;9.17;;;;;;;19.38;50.99;100121.75;5069192;28;20222;-56
2022/05/07 09:40:39;;;;;;;11.27;8.93;;;;;;;19.26;51.87;100112.25;5068864;28;20196;-57
2022/05/07 09:43:07;;;;;;;10.68;9.55;;;;;;;19.55;51.33;100112.03;5067711;28;20517;-56
2022/05/07 09:45:34;;;;;;;15.53;11.93;;;;;;;19.95;50.72;100115.91;5062124;28;20192;-56
2022/05/07 09:48:01;;;;;;;9.33;8.13;;;;;;;20.21;48.49;100117.34;5067781;28;21322;-57
2022/05/07 09:58:42;;;;;;;14.67;7.23;;;;;;;20.70;45.92;100094.94;5069102;28;20182;-59
2022/05/07 10:01:34;;;;;;;9.60;7.10;;;;;;;20.86;46.15;100093.81;5071545;28;20597;-57
2022/05/07 10:04:30;;;;;;;10.30;7.50;;;;;;;21.01;45.32;100096.16;5073474;28;20191;-55
2022/05/07 10:07:14;;;;;;;7.37;6.23;;;;;;;20.52;44.18;100090.81;5060559;28;20287;-56
2022/05/07 10:09:50;;;;;;;8.83;6.73;;;;;;;20.45;44.87;100083.97;5052470;28;20207;-56
2022/05/07 10:12:21;;;;;;;10.40;6.07;;;;;;;20.64;43.88;100079.34;5052001;28;20220;-55
2022/05/07 10:14:48;;;;;;;9.90;6.30;;;;;;;21.00;42.24;100081.38;5051923;28;20192;-56
2022/05/07 10:17:16;;;;;;;6.83;5.77;;;;;;;21.20;41.63;100075.84;5051479;28;20200;-57
2022/05/07 10:19:44;;;;;;;6.50;5.80;;;;;;;20.98;40.12;100080.56;5052017;28;20199;-62
2022/05/07 10:22:21;;;;;;;6.83;6.23;;;;;;;20.76;40.64;100078.31;5051899;28;20195;-62
2022/05/07 10:24:48;;;;;;;6.87;5.73;;;;;;;20.45;41.36;100083.13;5066796;28;20631;-61
2022/05/07 10:27:22;;;;;;;6.57;5.90;;;;;;;20.69;41.86;100072.28;5071447;28;20483;-62
2022/05/07 10:29:50;;;;;;;11.13;7.10;;;;;;;20.69;41.04;100066.22;5064547;28;20199;-62
2022/05/07 10:32:18;;;;;;;12.85;6.55;;;;;;;20.84;41.46;100064.22;5051366;28;20818;-62
2022/05/07 10:34:53;;;;;;;9.43;6.17;;;;;;;20.78;39.98;100066.06;5051834;28;20192;-62
2022/05/07 10:37:20;;;;;;;8.07;6.10;;;;;;;20.56;40.25;100066.41;5064720;28;20697;-61
2022/05/07 10:39:52;;;;;;;7.70;5.83;;;;;;;20.52;40.99;100059.50;5069673;28;20571;-61
2022/05/07 10:42:21;;;;;;;6.83;6.23;;;;;;;20.47;40.84;100056.09;5068558;28;20190;-61
2022/05/07 10:44:49;;;;;;;6.07;5.07;;;;;;;20.69;40.31;100055.75;5058138;28;20196;-62
2022/05/07 10:47:18;;;;;;;13.07;6.53;;;;;;;20.82;40.52;100050.31;5071803;28;20199;-62
2022/05/07 10:49:55;;;;;;;7.13;6.20;;;;;;;20.96;40.25;100055.31;5069548;28;20286;-62
2022/05/07 10:52:32;;;;;;;11.10;6.97;;;;;;;20.93;40.47;100056.22;5067018;28;20295;-62
2022/05/07 10:55:11;;;;;;;6.20;5.50;;;;;;;20.70;39.99;100047.03;5069216;28;20191;-62
2022/05/07 10:57:43;;;;;;;8.27;5.90;;;;;;;20.39;41.28;100046.66;5068837;28;20183;-61
2022/05/07 11:00:13;;;;;;;6.30;5.70;;;;;;;20.65;40.53;100043.66;5073553;28;20192;-61
2022/05/07 11:02:40;;;;;;;7.97;6.57;;;;;;;20.68;40.74;100044.47;5070035;28;20187;-56
2022/05/07 11:05:08;;;;;;;6.80;6.10;;;;;;;20.66;39.87;100046.22;5070726;28;20229;-56
2022/05/07 11:07:35;;;;;;;12.27;6.57;;;;;;;20.65;39.48;100041.03;5070351;28;20225;-56
2022/05/07 11:10:02;;;;;;;10.80;7.00;;;;;;;20.64;39.92;100041.91;5068939;28;20192;-56
2022/05/07 11:12:30;;;;;;;6.20;5.57;;;;;;;20.39;38.57;100026.63;5066119;28;20203;-56
2022/05/07 11:14:58;;;;;;;11.80;6.10;;;;;;;20.28;39.52;100032.88;5070653;28;20187;-56
2022/05/07 11:17:33;;;;;;;10.37;6.20;;;;;;;20.20;39.68;100026.88;5070021;28;20198;-56
2022/05/07 11:20:00;;;;;;;7.40;6.13;;;;;;;20.03;39.72;100033.19;5069158;28;20197;-56
2022/05/07 11:22:30;;;;;;;9.53;6.60;;;;;;;20.52;39.67;100033.38;5071088;28;20574;-57
2022/05/07 11:24:58;;;;;;;8.73;6.80;;;;;;;20.71;39.02;100033.94;5071452;28;20203;-62
2022/05/07 11:27:32;;;;;;;9.20;6.77;;;;;;;20.63;39.03;100029.78;5071051;28;20191;-62
2022/05/07 11:30:05;;;;;;;8.40;7.53;;;;;;;21.01;39.50;100027.38;5070865;28;20601;-62
2022/05/07 11:32:41;;;;;;;9.67;8.00;;;;;;;21.48;38.46;100029.16;5071252;28;20298;-62
2022/05/07 11:35:12;;;;;;;8.20;7.40;;;;;;;21.37;37.46;100031.09;5071064;28;20191;-62
2022/05/07 11:37:41;;;;;;;10.83;7.93;;;;;;;21.63;37.55;100031.44;5070507;28;20625;-61
2022/05/07 11:40:08;;;;;;;13.37;9.07;;;;;;;21.68;38.49;100020.00;5070440;28;20192;-61
2022/05/07 11:42:37;;;;;;;9.03;8.20;;;;;;;21.67;37.55;99993.88;5070637;28;20187;-61
2022/05/07 11:45:26;;;;;;;9.87;8.97;;;;;;;21.84;37.45;100014.47;5070248;28;20187;-61
2022/05/07 11:47:54;;;;;;;8.83;8.03;;;;;;;21.82;37.68;100017.09;5070506;28;20195;-61
2022/05/07 11:50:23;;;;;;;8.73;7.93;;;;;;;22.21;36.95;100013.66;5070476;28;20666;-62
2022/05/07 11:52:50;;;;;;;9.87;8.50;;;;;;;22.70;36.52;100008.13;5070085;28;20211;-61
2022/05/07 11:55:18;;;;;;;8.90;7.90;;;;;;;22.49;34.58;100008.63;5070539;28;20184;-61
2022/05/07 11:57:47;;;;;;;7.53;6.93;;;;;;;22.67;34.23;100007.34;5070277;28;20249;-60
2022/05/07 12:00:18;;;;;;;8.67;7.80;;;;;;;22.78;34.99;100000.09;5070915;28;20278;-61